Search for airport 
image banner adimage banner adimage banner ad
image banner ad

12IA - Plueger Airfield

Located in Lemars, United States

ICAO - 12IA, IATA -

Data provided by Airmate  

General information

Coordinates: N42°48'2" W96°8'16"
Elevation is 1245 feet MSL.
 
View others Airports in Iowa

Operational data

Special qualification required
Current time UTC:
Current local time:
Weather at : KLRJ - Le Mars Muni ( 5 km )
METAR: KLRJ 150855Z AUTO 02006KT 10SM CLR 14/10 A3011 RMK AO2
View NOTAMs / SUP AIP / TFR affecting this airport [VIEW]
Communications frequencies: [VIEW]

Runways:

RWY identifierQFULength (ft)Width (ft)SurfaceLDA (ft)
091350200GRASS
271350200GRASS

Airport contact information

Address: Lemars United States

Satellite view of 12IA